Roanoke — WDD9656 — position and weather

sailwx.info

Track history (hours):
 
Tides and Currents Weather Stations Pressure Air Temp Water Temp Dewpoint Dewpoint Depression Visibility Wind Speed Wind Dir Waves Ship Positions

Roanoke

Owner: Vane Line Bunkering, Baltimore, MD. More information available from US FCC via Universal Licensing System and Coast Guard Vessel Documentation Center.

Last reported at 2014-Oct-25 13:33 UTC. Time now 2014-Oct-25 17:31 UTC.
Position N 39°00' W 076°23'.

Length 32 m; draft 13 m.

Type: Towing. MMSI: 367314510.

Date/timePositionNaut miles runAvg speedWind from/ knotsBaromVisibWave heightAir tempDewpointWater temp
2014-Oct-25 13:33N 39°00' W 076°23'9 8.5
2014-Oct-25 12:27N 39°09' W 076°25'8 8.8
2014-Oct-25 11:33N 39°15' W 076°33'1 0.4
2014-Oct-25 09:06N 39°15' W 076°34'0 0.0
2014-Oct-24 21:24N 39°15' W 076°34'0 0.0
2014-Oct-24 20:03N 39°15' W 076°34'0 0.0
2014-Oct-24 19:31N 39°15' W 076°34'0 0.0
2014-Oct-24 17:23N 39°15' W 076°34'0 0.0
2014-Oct-24 15:27N 39°15' W 076°34'0 0.0
2014-Oct-24 14:22N 39°15' W 076°34'0 0.0
2014-Oct-24 13:17N 39°15' W 076°34'0 0.0
2014-Oct-24 12:23N 39°15' W 076°34'1 1.3
2014-Oct-24 11:31N 39°15' W 076°33'0 0.0
2014-Oct-24 10:32N 39°15' W 076°33'0 0.0
2014-Oct-24 09:30N 39°15' W 076°33'0 0.0
2014-Oct-24 08:33N 39°15' W 076°33'0 0.0
2014-Oct-24 07:31N 39°15' W 076°33'0 0.0
2014-Oct-24 06:32N 39°15' W 076°33'0 0.0
2014-Oct-24 05:33N 39°15' W 076°33'0 0.0
2014-Oct-24 04:33N 39°15' W 076°33'0 0.0
2014-Oct-24 03:22N 39°15' W 076°33'0 0.0
2014-Oct-24 02:31N 39°15' W 076°33'0 0.0
2014-Oct-24 01:23N 39°15' W 076°33'0 0.0
2014-Oct-24 00:33N 39°15' W 076°33'0 0.0
2014-Oct-23 23:33N 39°15' W 076°33'0 0.0
2014-Oct-23 21:32N 39°15' W 076°33'0 0.5
2014-Oct-23 20:33N 39°15' W 076°34'0 0.2
2014-Oct-23 19:33N 39°15' W 076°34'1 0.6
2014-Oct-23 18:33N 39°15' W 076°34'0 0.0
2014-Oct-23 17:31N 39°15' W 076°34'0 0.0
2014-Oct-23 16:32N 39°15' W 076°34'0 0.0
2014-Oct-23 15:30N 39°15' W 076°34'0 0.0
2014-Oct-23 14:33N 39°15' W 076°34'0 0.0
2014-Oct-23 13:25N 39°15' W 076°34'0 0.0
2014-Oct-23 12:28N 39°15' W 076°34'0 0.0
2014-Oct-23 11:32N 39°15' W 076°34'0 0.0
2014-Oct-23 10:33N 39°15' W 076°34'0 0.0
2014-Oct-23 08:22N 39°15' W 076°34'0 0.0
2014-Oct-23 06:23N 39°15' W 076°34'3 3.9
2014-Oct-23 05:33N 39°13' W 076°31'36 8.3
2014-Oct-23 01:12N 39°32' W 075°52'6 8.4
2014-Oct-23 00:32N 39°32' W 075°45'8 8.6
2014-Oct-22 23:33N 39°34' W 075°34'5 4.8
2014-Oct-22 22:33N 39°33' W 075°40'39 7.6
2014-Oct-22 17:23N 39°12' W 076°23'6 7.5
2014-Oct-22 16:34N 39°12' W 076°31'3 2.7
2014-Oct-22 15:33N 39°14' W 076°34'0 0.0
2014-Oct-22 13:13N 39°14' W 076°34'0 0.0
2014-Oct-22 12:14N 39°14' W 076°34'0 0.0
2014-Oct-22 10:09N 39°14' W 076°34'0 0.0
2014-Oct-22 09:10N 39°14' W 076°34'0 0.0
2014-Oct-22 08:28N 39°14' W 076°34'0 0.0
2014-Oct-22 07:27N 39°14' W 076°34'0 0.0
2014-Oct-22 06:12N 39°14' W 076°34'0 0.0
2014-Oct-22 05:31N 39°14' W 076°34'0 0.0
2014-Oct-22 04:17N 39°14' W 076°34'1 0.5
2014-Oct-22 02:33N 39°14' W 076°33'7 6.7
2014-Oct-22 01:32N 39°11' W 076°24'35 6.9
2014-Oct-21 20:32N 39°32' W 075°48'7 7.4
2014-Oct-21 19:33N 39°33' W 075°39'3 3.1
2014-Oct-21 18:31N 39°35' W 075°36'0 0.0
2014-Oct-21 17:32N 39°35' W 075°36'0 0.0
2014-Oct-21 16:32N 39°35' W 075°36'0 0.0
2014-Oct-21 15:33N 39°35' W 075°36'0 0.0
2014-Oct-21 14:31N 39°35' W 075°36'0 0.0
2014-Oct-21 13:31N 39°35' W 075°36'0 0.0
2014-Oct-21 12:32N 39°35' W 075°36'0 0.0
2014-Oct-21 11:33N 39°35' W 075°36'0 0.0
2014-Oct-21 10:33N 39°35' W 075°36'0 0.0
2014-Oct-21 09:31N 39°35' W 075°36'0 0.0
2014-Oct-21 08:32N 39°35' W 075°36'0 0.0
2014-Oct-21 07:32N 39°35' W 075°36'0 0.4
2014-Oct-21 06:31N 39°35' W 075°35'0 0.0
2014-Oct-21 05:32N 39°35' W 075°35'0 0.0
2014-Oct-21 04:32N 39°35' W 075°35'2 1.5
2014-Oct-21 03:33N 39°34' W 075°34'8 8.0
2014-Oct-21 02:33N 39°32' W 075°45'35 8.5
2014-Oct-20 22:28N 39°13' W 076°22'6 7.0
2014-Oct-20 21:33N 39°12' W 076°30'4 4.2
2014-Oct-20 20:31N 39°15' W 076°34'0 0.0
2014-Oct-20 19:22N 39°15' W 076°34'2 2.8
2014-Oct-20 18:33N 39°17' W 076°36'2 2.2
2014-Oct-20 17:31N 39°15' W 076°34'0 0.0
2014-Oct-20 15:12N 39°15' W 076°34'0 0.0
2014-Oct-20 14:30N 39°15' W 076°34'0 0.0
2014-Oct-20 06:27N 39°15' W 076°34'0 0.0
2014-Oct-19 22:23N 39°15' W 076°34'0 0.0
2014-Oct-19 19:28N 39°15' W 076°34'0 0.0
2014-Oct-19 18:17N 39°15' W 076°34'0 0.0
2014-Oct-19 15:28N 39°15' W 076°34'0 0.0
2014-Oct-19 14:22N 39°15' W 076°34'0 0.0
2014-Oct-19 12:27N 39°15' W 076°34'0 0.0
2014-Oct-19 11:24N 39°15' W 076°34'0 0.0
2014-Oct-19 10:13N 39°15' W 076°34'0 0.0
2014-Oct-19 09:31N 39°15' W 076°34'0 0.0
2014-Oct-19 08:29N 39°15' W 076°34'0 0.0
2014-Oct-19 07:30N 39°15' W 076°34'0 0.0
2014-Oct-19 06:12N 39°15' W 076°34'0 0.0
2014-Oct-19 05:25N 39°15' W 076°34'0 0.0
2014-Oct-19 04:05N 39°15' W 076°34'0 0.0
2014-Oct-19 03:33N 39°15' W 076°34'0 0.0
2014-Oct-19 01:16N 39°15' W 076°34'0 0.0
2014-Oct-19 00:14N 39°15' W 076°34'0 0.0
2014-Oct-18 21:24N 39°15' W 076°34'0 0.0
2014-Oct-18 19:32N 39°15' W 076°34'0 0.0
2014-Oct-18 11:19N 39°15' W 076°34'0 0.0
2014-Oct-18 09:21N 39°15' W 076°34'0 0.0
2014-Oct-18 08:21N 39°15' W 076°34'0 0.0
2014-Oct-18 07:31N 39°15' W 076°34'0 0.0
2014-Oct-18 06:32N 39°15' W 076°34'0 0.0
2014-Oct-18 05:21N 39°15' W 076°34'0 0.0
2014-Oct-18 04:33N 39°15' W 076°34'0 0.0
2014-Oct-18 02:22N 39°15' W 076°34'0 0.0
2014-Oct-18 01:20N 39°15' W 076°34'0 0.0
2014-Oct-18 00:30N 39°15' W 076°34'0 0.0
2014-Oct-17 22:28N 39°15' W 076°34'0 0.0
2014-Oct-17 20:32N 39°15' W 076°34'0 0.0
2014-Oct-17 19:18N 39°15' W 076°34'0 0.0
2014-Oct-17 18:16N 39°15' W 076°34'1 0.3
2014-Oct-17 16:33N 39°14' W 076°34'8 7.8
2014-Oct-17 15:32N 39°12' W 076°24'36 9.0
2014-Oct-17 11:33N 39°32' W 075°46'9 8.8
2014-Oct-17 10:33N 39°34' W 075°34'9 8.6
2014-Oct-17 09:33N 39°25' W 075°31'39 1.6
2014-Oct-16 09:25N 39°14' W 076°20'7 7.3
2014-Oct-16 08:29N 39°11' W 076°28'6 3.1
2014-Oct-16 06:33N 39°15' W 076°33'0 0.0
2014-Oct-16 05:27N 39°15' W 076°33'0 0.0
2014-Oct-16 04:25N 39°15' W 076°33'0 0.0
2014-Oct-16 03:05N 39°15' W 076°33'0 0.0
2014-Oct-16 01:13N 39°15' W 076°33'0 0.0
2014-Oct-16 00:13N 39°15' W 076°33'0 0.0
2014-Oct-15 22:09N 39°15' W 076°33'0 0.0
2014-Oct-15 20:33N 39°15' W 076°33'0 0.0
2014-Oct-15 19:04N 39°15' W 076°33'0 0.0
2014-Oct-15 18:29N 39°15' W 076°33'0 0.0
2014-Oct-15 17:29N 39°15' W 076°33'1 0.5
2014-Oct-15 15:12N 39°15' W 076°34'  
Track history (hours):
 
Tides and Currents Weather Stations Pressure Air Temp Water Temp Dewpoint Dewpoint Depression Visibility Wind Speed Wind Dir Waves Ship Positions

Roanoke

Owner: Vane Line Bunkering, Baltimore, MD. More information available from US FCC via Universal Licensing System and Coast Guard Vessel Documentation Center.

Last reported at 2014-Oct-25 13:33 UTC. Time now 2014-Oct-25 17:31 UTC.
Position N 39°00' W 076°23'.

Length 32 m; draft 13 m.

Type: Towing. MMSI: 367314510.

Date/timePositionNaut miles runAvg speedWind from/ knotsBaromVisibWave heightAir tempDewpointWater temp
2014-Oct-25 13:33N 39°00' W 076°23'9 8.5
2014-Oct-25 12:27N 39°09' W 076°25'8 8.8
2014-Oct-25 11:33N 39°15' W 076°33'1 0.4
2014-Oct-25 09:06N 39°15' W 076°34'0 0.0
2014-Oct-24 21:24N 39°15' W 076°34'0 0.0
2014-Oct-24 20:03N 39°15' W 076°34'0 0.0
2014-Oct-24 19:31N 39°15' W 076°34'0 0.0
2014-Oct-24 17:23N 39°15' W 076°34'0 0.0
2014-Oct-24 15:27N 39°15' W 076°34'0 0.0
2014-Oct-24 14:22N 39°15' W 076°34'0 0.0
2014-Oct-24 13:17N 39°15' W 076°34'0 0.0
2014-Oct-24 12:23N 39°15' W 076°34'1 1.3
2014-Oct-24 11:31N 39°15' W 076°33'0 0.0
2014-Oct-24 10:32N 39°15' W 076°33'0 0.0
2014-Oct-24 09:30N 39°15' W 076°33'0 0.0
2014-Oct-24 08:33N 39°15' W 076°33'0 0.0
2014-Oct-24 07:31N 39°15' W 076°33'0 0.0
2014-Oct-24 06:32N 39°15' W 076°33'0 0.0
2014-Oct-24 05:33N 39°15' W 076°33'0 0.0
2014-Oct-24 04:33N 39°15' W 076°33'0 0.0
2014-Oct-24 03:22N 39°15' W 076°33'0 0.0
2014-Oct-24 02:31N 39°15' W 076°33'0 0.0
2014-Oct-24 01:23N 39°15' W 076°33'0 0.0
2014-Oct-24 00:33N 39°15' W 076°33'0 0.0
2014-Oct-23 23:33N 39°15' W 076°33'0 0.0
2014-Oct-23 21:32N 39°15' W 076°33'0 0.5
2014-Oct-23 20:33N 39°15' W 076°34'0 0.2
2014-Oct-23 19:33N 39°15' W 076°34'1 0.6
2014-Oct-23 18:33N 39°15' W 076°34'0 0.0
2014-Oct-23 17:31N 39°15' W 076°34'0 0.0
2014-Oct-23 16:32N 39°15' W 076°34'0 0.0
2014-Oct-23 15:30N 39°15' W 076°34'0 0.0
2014-Oct-23 14:33N 39°15' W 076°34'0 0.0
2014-Oct-23 13:25N 39°15' W 076°34'0 0.0
2014-Oct-23 12:28N 39°15' W 076°34'0 0.0
2014-Oct-23 11:32N 39°15' W 076°34'0 0.0
2014-Oct-23 10:33N 39°15' W 076°34'0 0.0
2014-Oct-23 08:22N 39°15' W 076°34'0 0.0
2014-Oct-23 06:23N 39°15' W 076°34'3 3.9
2014-Oct-23 05:33N 39°13' W 076°31'36 8.3
2014-Oct-23 01:12N 39°32' W 075°52'6 8.4
2014-Oct-23 00:32N 39°32' W 075°45'8 8.6
2014-Oct-22 23:33N 39°34' W 075°34'5 4.8
2014-Oct-22 22:33N 39°33' W 075°40'39 7.6
2014-Oct-22 17:23N 39°12' W 076°23'6 7.5
2014-Oct-22 16:34N 39°12' W 076°31'3 2.7
2014-Oct-22 15:33N 39°14' W 076°34'0 0.0
2014-Oct-22 13:13N 39°14' W 076°34'0 0.0
2014-Oct-22 12:14N 39°14' W 076°34'0 0.0
2014-Oct-22 10:09N 39°14' W 076°34'0 0.0
2014-Oct-22 09:10N 39°14' W 076°34'0 0.0
2014-Oct-22 08:28N 39°14' W 076°34'0 0.0
2014-Oct-22 07:27N 39°14' W 076°34'0 0.0
2014-Oct-22 06:12N 39°14' W 076°34'0 0.0
2014-Oct-22 05:31N 39°14' W 076°34'0 0.0
2014-Oct-22 04:17N 39°14' W 076°34'1 0.5
2014-Oct-22 02:33N 39°14' W 076°33'7 6.7
2014-Oct-22 01:32N 39°11' W 076°24'35 6.9
2014-Oct-21 20:32N 39°32' W 075°48'7 7.4
2014-Oct-21 19:33N 39°33' W 075°39'3 3.1
2014-Oct-21 18:31N 39°35' W 075°36'0 0.0
2014-Oct-21 17:32N 39°35' W 075°36'0 0.0
2014-Oct-21 16:32N 39°35' W 075°36'0 0.0
2014-Oct-21 15:33N 39°35' W 075°36'0 0.0
2014-Oct-21 14:31N 39°35' W 075°36'0 0.0
2014-Oct-21 13:31N 39°35' W 075°36'0 0.0
2014-Oct-21 12:32N 39°35' W 075°36'0 0.0
2014-Oct-21 11:33N 39°35' W 075°36'0 0.0
2014-Oct-21 10:33N 39°35' W 075°36'0 0.0
2014-Oct-21 09:31N 39°35' W 075°36'0 0.0
2014-Oct-21 08:32N 39°35' W 075°36'0 0.0
2014-Oct-21 07:32N 39°35' W 075°36'0 0.4
2014-Oct-21 06:31N 39°35' W 075°35'0 0.0
2014-Oct-21 05:32N 39°35' W 075°35'0 0.0
2014-Oct-21 04:32N 39°35' W 075°35'2 1.5
2014-Oct-21 03:33N 39°34' W 075°34'8 8.0
2014-Oct-21 02:33N 39°32' W 075°45'35 8.5
2014-Oct-20 22:28N 39°13' W 076°22'6 7.0
2014-Oct-20 21:33N 39°12' W 076°30'4 4.2
2014-Oct-20 20:31N 39°15' W 076°34'0 0.0
2014-Oct-20 19:22N 39°15' W 076°34'2 2.8
2014-Oct-20 18:33N 39°17' W 076°36'2 2.2
2014-Oct-20 17:31N 39°15' W 076°34'0 0.0
2014-Oct-20 15:12N 39°15' W 076°34'0 0.0
2014-Oct-20 14:30N 39°15' W 076°34'0 0.0
2014-Oct-20 06:27N 39°15' W 076°34'0 0.0
2014-Oct-19 22:23N 39°15' W 076°34'0 0.0
2014-Oct-19 19:28N 39°15' W 076°34'0 0.0
2014-Oct-19 18:17N 39°15' W 076°34'0 0.0
2014-Oct-19 15:28N 39°15' W 076°34'0 0.0
2014-Oct-19 14:22N 39°15' W 076°34'0 0.0
2014-Oct-19 12:27N 39°15' W 076°34'0 0.0
2014-Oct-19 11:24N 39°15' W 076°34'0 0.0
2014-Oct-19 10:13N 39°15' W 076°34'0 0.0
2014-Oct-19 09:31N 39°15' W 076°34'0 0.0
2014-Oct-19 08:29N 39°15' W 076°34'0 0.0
2014-Oct-19 07:30N 39°15' W 076°34'0 0.0
2014-Oct-19 06:12N 39°15' W 076°34'0 0.0
2014-Oct-19 05:25N 39°15' W 076°34'0 0.0
2014-Oct-19 04:05N 39°15' W 076°34'0 0.0
2014-Oct-19 03:33N 39°15' W 076°34'0 0.0
2014-Oct-19 01:16N 39°15' W 076°34'0 0.0
2014-Oct-19 00:14N 39°15' W 076°34'0 0.0
2014-Oct-18 21:24N 39°15' W 076°34'0 0.0
2014-Oct-18 19:32N 39°15' W 076°34'0 0.0
2014-Oct-18 11:19N 39°15' W 076°34'0 0.0
2014-Oct-18 09:21N 39°15' W 076°34'0 0.0
2014-Oct-18 08:21N 39°15' W 076°34'0 0.0
2014-Oct-18 07:31N 39°15' W 076°34'0 0.0
2014-Oct-18 06:32N 39°15' W 076°34'0 0.0
2014-Oct-18 05:21N 39°15' W 076°34'0 0.0
2014-Oct-18 04:33N 39°15' W 076°34'0 0.0
2014-Oct-18 02:22N 39°15' W 076°34'0 0.0
2014-Oct-18 01:20N 39°15' W 076°34'0 0.0
2014-Oct-18 00:30N 39°15' W 076°34'0 0.0
2014-Oct-17 22:28N 39°15' W 076°34'0 0.0
2014-Oct-17 20:32N 39°15' W 076°34'0 0.0
2014-Oct-17 19:18N 39°15' W 076°34'0 0.0
2014-Oct-17 18:16N 39°15' W 076°34'1 0.3
2014-Oct-17 16:33N 39°14' W 076°34'8 7.8
2014-Oct-17 15:32N 39°12' W 076°24'36 9.0
2014-Oct-17 11:33N 39°32' W 075°46'9 8.8
2014-Oct-17 10:33N 39°34' W 075°34'9 8.6
2014-Oct-17 09:33N 39°25' W 075°31'39 1.6
2014-Oct-16 09:25N 39°14' W 076°20'7 7.3
2014-Oct-16 08:29N 39°11' W 076°28'6 3.1
2014-Oct-16 06:33N 39°15' W 076°33'0 0.0
2014-Oct-16 05:27N 39°15' W 076°33'0 0.0
2014-Oct-16 04:25N 39°15' W 076°33'0 0.0
2014-Oct-16 03:05N 39°15' W 076°33'0 0.0
2014-Oct-16 01:13N 39°15' W 076°33'0 0.0
2014-Oct-16 00:13N 39°15' W 076°33'0 0.0
2014-Oct-15 22:09N 39°15' W 076°33'0 0.0
2014-Oct-15 20:33N 39°15' W 076°33'0 0.0
2014-Oct-15 19:04N 39°15' W 076°33'0 0.0
2014-Oct-15 18:29N 39°15' W 076°33'0 0.0
2014-Oct-15 17:29N 39°15' W 076°33'1 0.5
2014-Oct-15 15:12N 39°15' W 076°34'  

Dump ship's entire track history